sensor_id;sensor_type;location;lat;lon;timestamp;P1;durP1;ratioP1;P2;durP2;ratioP2
18336;SDS011;9294;51.106;7.028;2022-12-07T00:01:16;2.60;;;2.50;;
18336;SDS011;9294;51.106;7.028;2022-12-07T00:03:44;2.67;;;2.58;;
18336;SDS011;9294;51.106;7.028;2022-12-07T00:06:13;2.60;;;2.50;;
18336;SDS011;9294;51.106;7.028;2022-12-07T00:08:42;2.55;;;2.45;;
18336;SDS011;9294;51.106;7.028;2022-12-07T00:11:09;2.42;;;2.33;;
18336;SDS011;9294;51.106;7.028;2022-12-07T00:13:38;2.78;;;2.67;;
18336;SDS011;9294;51.106;7.028;2022-12-07T00:16:06;2.20;;;2.10;;
18336;SDS011;9294;51.106;7.028;2022-12-07T00:18:35;2.47;;;2.38;;
18336;SDS011;9294;51.106;7.028;2022-12-07T00:21:02;2.65;;;2.50;;
18336;SDS011;9294;51.106;7.028;2022-12-07T00:23:31;2.38;;;2.28;;
18336;SDS011;9294;51.106;7.028;2022-12-07T00:26:02;2.47;;;2.15;;
18336;SDS011;9294;51.106;7.028;2022-12-07T00:28:30;2.72;;;2.60;;
18336;SDS011;9294;51.106;7.028;2022-12-07T00:30:59;2.53;;;2.40;;
18336;SDS011;9294;51.106;7.028;2022-12-07T00:33:27;2.72;;;2.55;;
18336;SDS011;9294;51.106;7.028;2022-12-07T00:35:56;2.40;;;2.30;;
18336;SDS011;9294;51.106;7.028;2022-12-07T00:38:23;2.30;;;2.20;;
18336;SDS011;9294;51.106;7.028;2022-12-07T00:40:54;2.15;;;2.15;;
18336;SDS011;9294;51.106;7.028;2022-12-07T00:43:22;2.20;;;2.10;;
18336;SDS011;9294;51.106;7.028;2022-12-07T00:45:49;2.05;;;2.05;;
18336;SDS011;9294;51.106;7.028;2022-12-07T00:48:15;2.50;;;2.40;;
18336;SDS011;9294;51.106;7.028;2022-12-07T00:50:42;2.35;;;2.25;;
18336;SDS011;9294;51.106;7.028;2022-12-07T00:53:10;2.60;;;2.47;;
18336;SDS011;9294;51.106;7.028;2022-12-07T00:55:37;2.53;;;2.42;;
18336;SDS011;9294;51.106;7.028;2022-12-07T00:58:04;2.50;;;2.40;;
18336;SDS011;9294;51.106;7.028;2022-12-07T01:00:30;2.88;;;2.67;;
18336;SDS011;9294;51.106;7.028;2022-12-07T01:02:57;2.08;;;2.08;;
18336;SDS011;9294;51.106;7.028;2022-12-07T01:05:24;2.63;;;2.42;;
18336;SDS011;9294;51.106;7.028;2022-12-07T01:07:51;2.28;;;2.10;;
18336;SDS011;9294;51.106;7.028;2022-12-07T01:10:19;2.55;;;2.40;;
18336;SDS011;9294;51.106;7.028;2022-12-07T01:12:46;2.47;;;2.38;;
18336;SDS011;9294;51.106;7.028;2022-12-07T01:15:12;2.47;;;2.38;;
18336;SDS011;9294;51.106;7.028;2022-12-07T01:17:39;2.58;;;2.45;;
18336;SDS011;9294;51.106;7.028;2022-12-07T01:20:06;2.40;;;2.30;;
18336;SDS011;9294;51.106;7.028;2022-12-07T01:22:35;2.40;;;2.30;;
18336;SDS011;9294;51.106;7.028;2022-12-07T01:25:03;2.80;;;2.70;;
18336;SDS011;9294;51.106;7.028;2022-12-07T01:27:31;2.45;;;2.35;;
18336;SDS011;9294;51.106;7.028;2022-12-07T01:29:58;2.58;;;2.47;;
18336;SDS011;9294;51.106;7.028;2022-12-07T01:32:25;2.42;;;2.33;;
18336;SDS011;9294;51.106;7.028;2022-12-07T01:34:51;2.60;;;2.50;;
18336;SDS011;9294;51.106;7.028;2022-12-07T01:37:18;1.90;;;1.85;;
18336;SDS011;9294;51.106;7.028;2022-12-07T01:39:47;2.40;;;2.33;;
18336;SDS011;9294;51.106;7.028;2022-12-07T01:42:14;2.30;;;2.20;;
18336;SDS011;9294;51.106;7.028;2022-12-07T01:47:50;2.50;;;2.40;;
18336;SDS011;9294;51.106;7.028;2022-12-07T01:50:19;2.42;;;2.28;;
18336;SDS011;9294;51.106;7.028;2022-12-07T01:52:47;2.78;;;2.30;;
18336;SDS011;9294;51.106;7.028;2022-12-07T01:55:17;2.47;;;2.38;;
18336;SDS011;9294;51.106;7.028;2022-12-07T01:57:46;2.70;;;2.50;;
18336;SDS011;9294;51.106;7.028;2022-12-07T02:00:15;2.72;;;2.63;;
18336;SDS011;9294;51.106;7.028;2022-12-07T02:02:43;2.15;;;2.05;;
18336;SDS011;9294;51.106;7.028;2022-12-07T02:05:14;2.63;;;2.45;;
18336;SDS011;9294;51.106;7.028;2022-12-07T02:07:42;3.35;;;3.15;;
18336;SDS011;9294;51.106;7.028;2022-12-07T02:10:14;2.67;;;2.58;;
18336;SDS011;9294;51.106;7.028;2022-12-07T02:12:42;2.47;;;2.38;;
18336;SDS011;9294;51.106;7.028;2022-12-07T02:15:10;3.05;;;2.85;;
18336;SDS011;9294;51.106;7.028;2022-12-07T02:17:38;2.55;;;2.45;;
18336;SDS011;9294;51.106;7.028;2022-12-07T02:20:20;2.20;;;2.10;;
18336;SDS011;9294;51.106;7.028;2022-12-07T02:23:04;2.60;;;2.50;;
18336;SDS011;9294;51.106;7.028;2022-12-07T02:26:10;2.40;;;2.30;;
18336;SDS011;9294;51.106;7.028;2022-12-07T02:31:41;2.53;;;2.42;;
18336;SDS011;9294;51.106;7.028;2022-12-07T02:34:12;2.35;;;2.25;;
18336;SDS011;9294;51.106;7.028;2022-12-07T02:36:50;2.42;;;2.33;;
18336;SDS011;9294;51.106;7.028;2022-12-07T02:39:22;2.30;;;2.20;;
18336;SDS011;9294;51.106;7.028;2022-12-07T02:41:54;2.75;;;2.55;;
18336;SDS011;9294;51.106;7.028;2022-12-07T02:44:26;2.58;;;2.47;;
18336;SDS011;9294;51.106;7.028;2022-12-07T02:46:54;2.97;;;2.85;;
18336;SDS011;9294;51.106;7.028;2022-12-07T02:49:25;2.50;;;2.30;;
18336;SDS011;9294;51.106;7.028;2022-12-07T02:51:53;2.63;;;2.53;;
18336;SDS011;9294;51.106;7.028;2022-12-07T02:54:21;2.60;;;2.50;;
18336;SDS011;9294;51.106;7.028;2022-12-07T02:56:49;2.58;;;2.47;;
18336;SDS011;9294;51.106;7.028;2022-12-07T02:59:21;3.67;;;3.38;;
18336;SDS011;9294;51.106;7.028;2022-12-07T03:02:00;2.75;;;2.63;;
18336;SDS011;9294;51.106;7.028;2022-12-07T03:04:41;2.30;;;2.20;;
18336;SDS011;9294;51.106;7.028;2022-12-07T03:07:11;2.60;;;2.50;;
18336;SDS011;9294;51.106;7.028;2022-12-07T03:09:49;2.45;;;2.35;;
18336;SDS011;9294;51.106;7.028;2022-12-07T03:12:24;2.83;;;2.72;;
18336;SDS011;9294;51.106;7.028;2022-12-07T03:15:02;2.70;;;2.60;;
18336;SDS011;9294;51.106;7.028;2022-12-07T03:17:33;2.42;;;2.33;;
18336;SDS011;9294;51.106;7.028;2022-12-07T03:20:05;2.53;;;2.42;;
18336;SDS011;9294;51.106;7.028;2022-12-07T03:22:35;2.72;;;2.63;;
18336;SDS011;9294;51.106;7.028;2022-12-07T03:25:06;2.42;;;2.33;;
18336;SDS011;9294;51.106;7.028;2022-12-07T03:27:37;2.92;;;2.72;;
18336;SDS011;9294;51.106;7.028;2022-12-07T03:30:09;2.60;;;2.50;;
18336;SDS011;9294;51.106;7.028;2022-12-07T03:32:39;2.50;;;2.40;;
18336;SDS011;9294;51.106;7.028;2022-12-07T03:35:11;2.50;;;2.45;;
18336;SDS011;9294;51.106;7.028;2022-12-07T03:37:44;2.78;;;2.67;;
18336;SDS011;9294;51.106;7.028;2022-12-07T03:40:15;2.70;;;2.60;;
18336;SDS011;9294;51.106;7.028;2022-12-07T03:42:49;2.78;;;2.67;;
18336;SDS011;9294;51.106;7.028;2022-12-07T03:45:19;2.72;;;2.63;;
18336;SDS011;9294;51.106;7.028;2022-12-07T03:47:50;2.80;;;2.70;;
18336;SDS011;9294;51.106;7.028;2022-12-07T03:50:28;2.92;;;2.83;;
18336;SDS011;9294;51.106;7.028;2022-12-07T03:53:02;2.55;;;2.45;;
18336;SDS011;9294;51.106;7.028;2022-12-07T03:55:35;2.85;;;2.75;;
18336;SDS011;9294;51.106;7.028;2022-12-07T03:58:04;3.25;;;3.05;;
18336;SDS011;9294;51.106;7.028;2022-12-07T04:00:36;3.28;;;3.08;;
18336;SDS011;9294;51.106;7.028;2022-12-07T04:03:03;3.00;;;2.90;;
18336;SDS011;9294;51.106;7.028;2022-12-07T04:05:30;2.90;;;2.80;;
18336;SDS011;9294;51.106;7.028;2022-12-07T04:07:56;2.92;;;2.67;;
18336;SDS011;9294;51.106;7.028;2022-12-07T04:10:23;3.33;;;3.17;;
18336;SDS011;9294;51.106;7.028;2022-12-07T04:12:50;3.45;;;3.28;;
18336;SDS011;9294;51.106;7.028;2022-12-07T04:15:16;3.45;;;3.25;;
18336;SDS011;9294;51.106;7.028;2022-12-07T04:17:45;2.97;;;2.88;;
18336;SDS011;9294;51.106;7.028;2022-12-07T04:20:12;2.47;;;2.38;;
18336;SDS011;9294;51.106;7.028;2022-12-07T04:22:38;2.80;;;2.70;;
18336;SDS011;9294;51.106;7.028;2022-12-07T04:25:05;3.22;;;3.03;;
18336;SDS011;9294;51.106;7.028;2022-12-07T04:27:32;3.25;;;2.80;;
18336;SDS011;9294;51.106;7.028;2022-12-07T04:29:59;3.10;;;2.97;;
18336;SDS011;9294;51.106;7.028;2022-12-07T04:32:26;3.10;;;2.90;;
18336;SDS011;9294;51.106;7.028;2022-12-07T04:34:54;2.90;;;2.80;;
18336;SDS011;9294;51.106;7.028;2022-12-07T04:37:20;3.05;;;2.90;;
18336;SDS011;9294;51.106;7.028;2022-12-07T04:39:47;2.92;;;2.83;;
18336;SDS011;9294;51.106;7.028;2022-12-07T04:42:14;2.65;;;2.55;;
18336;SDS011;9294;51.106;7.028;2022-12-07T04:44:41;3.03;;;2.83;;
18336;SDS011;9294;51.106;7.028;2022-12-07T04:47:07;3.00;;;2.90;;
18336;SDS011;9294;51.106;7.028;2022-12-07T04:49:34;2.70;;;2.60;;
18336;SDS011;9294;51.106;7.028;2022-12-07T04:52:02;2.80;;;2.70;;
18336;SDS011;9294;51.106;7.028;2022-12-07T04:54:29;2.75;;;2.65;;
18336;SDS011;9294;51.106;7.028;2022-12-07T04:56:56;2.90;;;2.80;;
18336;SDS011;9294;51.106;7.028;2022-12-07T04:59:22;2.65;;;2.55;;
18336;SDS011;9294;51.106;7.028;2022-12-07T05:01:49;2.80;;;2.70;;
18336;SDS011;9294;51.106;7.028;2022-12-07T05:04:16;2.78;;;2.67;;
18336;SDS011;9294;51.106;7.028;2022-12-07T05:06:43;2.60;;;2.50;;
18336;SDS011;9294;51.106;7.028;2022-12-07T05:09:11;2.53;;;2.42;;
18336;SDS011;9294;51.106;7.028;2022-12-07T05:11:37;2.70;;;2.58;;
18336;SDS011;9294;51.106;7.028;2022-12-07T05:14:05;2.50;;;2.40;;
18336;SDS011;9294;51.106;7.028;2022-12-07T05:16:34;2.47;;;2.38;;
18336;SDS011;9294;51.106;7.028;2022-12-07T05:19:01;2.50;;;2.40;;
18336;SDS011;9294;51.106;7.028;2022-12-07T05:21:28;2.55;;;2.45;;
18336;SDS011;9294;51.106;7.028;2022-12-07T05:23:54;2.58;;;2.47;;
18336;SDS011;9294;51.106;7.028;2022-12-07T05:26:22;2.50;;;2.40;;
18336;SDS011;9294;51.106;7.028;2022-12-07T05:28:50;2.38;;;2.28;;
18336;SDS011;9294;51.106;7.028;2022-12-07T05:31:17;2.70;;;2.60;;
18336;SDS011;9294;51.106;7.028;2022-12-07T05:33:44;2.95;;;2.70;;
18336;SDS011;9294;51.106;7.028;2022-12-07T05:36:10;2.80;;;2.70;;
18336;SDS011;9294;51.106;7.028;2022-12-07T05:38:37;2.20;;;2.20;;
18336;SDS011;9294;51.106;7.028;2022-12-07T05:41:04;2.45;;;2.35;;
18336;SDS011;9294;51.106;7.028;2022-12-07T05:43:33;2.15;;;2.10;;
18336;SDS011;9294;51.106;7.028;2022-12-07T05:46:00;2.42;;;2.33;;
18336;SDS011;9294;51.106;7.028;2022-12-07T05:48:27;2.38;;;2.28;;
18336;SDS011;9294;51.106;7.028;2022-12-07T05:50:53;3.08;;;2.88;;
18336;SDS011;9294;51.106;7.028;2022-12-07T05:53:20;2.70;;;2.60;;
18336;SDS011;9294;51.106;7.028;2022-12-07T05:55:46;2.50;;;2.30;;
18336;SDS011;9294;51.106;7.028;2022-12-07T05:58:13;2.42;;;2.33;;
18336;SDS011;9294;51.106;7.028;2022-12-07T06:00:58;2.65;;;2.30;;
18336;SDS011;9294;51.106;7.028;2022-12-07T06:03:25;2.10;;;2.00;;
18336;SDS011;9294;51.106;7.028;2022-12-07T06:05:52;2.38;;;2.28;;
18336;SDS011;9294;51.106;7.028;2022-12-07T06:08:19;1.95;;;1.95;;
18336;SDS011;9294;51.106;7.028;2022-12-07T06:10:46;2.03;;;2.03;;
18336;SDS011;9294;51.106;7.028;2022-12-07T06:13:34;2.13;;;2.03;;
18336;SDS011;9294;51.106;7.028;2022-12-07T06:16:01;2.25;;;2.20;;
18336;SDS011;9294;51.106;7.028;2022-12-07T06:18:28;2.72;;;2.60;;
18336;SDS011;9294;51.106;7.028;2022-12-07T06:20:55;2.50;;;2.40;;
18336;SDS011;9294;51.106;7.028;2022-12-07T06:23:21;2.03;;;1.92;;
18336;SDS011;9294;51.106;7.028;2022-12-07T06:25:48;1.98;;;1.98;;
18336;SDS011;9294;51.106;7.028;2022-12-07T06:28:15;1.95;;;1.95;;
18336;SDS011;9294;51.106;7.028;2022-12-07T06:30:41;1.95;;;1.90;;
18336;SDS011;9294;51.106;7.028;2022-12-07T06:33:09;1.92;;;1.92;;
18336;SDS011;9294;51.106;7.028;2022-12-07T06:35:36;1.95;;;1.85;;
18336;SDS011;9294;51.106;7.028;2022-12-07T06:38:03;2.08;;;2.05;;
18336;SDS011;9294;51.106;7.028;2022-12-07T06:40:29;2.00;;;1.90;;
18336;SDS011;9294;51.106;7.028;2022-12-07T06:42:56;2.20;;;2.10;;
18336;SDS011;9294;51.106;7.028;2022-12-07T06:45:23;1.75;;;1.75;;
18336;SDS011;9294;51.106;7.028;2022-12-07T06:47:49;2.05;;;1.95;;
18336;SDS011;9294;51.106;7.028;2022-12-07T06:50:17;1.77;;;1.77;;
18336;SDS011;9294;51.106;7.028;2022-12-07T06:52:44;1.73;;;1.73;;
18336;SDS011;9294;51.106;7.028;2022-12-07T06:55:10;1.88;;;1.80;;
18336;SDS011;9294;51.106;7.028;2022-12-07T06:57:37;2.10;;;2.00;;
18336;SDS011;9294;51.106;7.028;2022-12-07T07:00:04;2.22;;;2.13;;
18336;SDS011;9294;51.106;7.028;2022-12-07T07:02:32;2.33;;;2.10;;
18336;SDS011;9294;51.106;7.028;2022-12-07T07:04:58;4.88;;;2.50;;
18336;SDS011;9294;51.106;7.028;2022-12-07T07:07:26;2.63;;;2.15;;
18336;SDS011;9294;51.106;7.028;2022-12-07T07:09:53;2.78;;;2.67;;
18336;SDS011;9294;51.106;7.028;2022-12-07T07:12:20;2.50;;;2.30;;
18336;SDS011;9294;51.106;7.028;2022-12-07T07:14:47;3.95;;;2.40;;
18336;SDS011;9294;51.106;7.028;2022-12-07T07:17:13;5.25;;;2.45;;
18336;SDS011;9294;51.106;7.028;2022-12-07T07:19:40;3.85;;;2.33;;
18336;SDS011;9294;51.106;7.028;2022-12-07T07:22:07;2.20;;;2.10;;
18336;SDS011;9294;51.106;7.028;2022-12-07T07:24:35;1.85;;;1.85;;
18336;SDS011;9294;51.106;7.028;2022-12-07T07:27:01;3.95;;;2.60;;
18336;SDS011;9294;51.106;7.028;2022-12-07T07:29:28;2.42;;;2.08;;
18336;SDS011;9294;51.106;7.028;2022-12-07T07:31:55;2.70;;;2.60;;
18336;SDS011;9294;51.106;7.028;2022-12-07T07:34:21;2.35;;;1.92;;
18336;SDS011;9294;51.106;7.028;2022-12-07T07:36:48;2.53;;;2.42;;
18336;SDS011;9294;51.106;7.028;2022-12-07T07:39:15;2.28;;;2.15;;
18336;SDS011;9294;51.106;7.028;2022-12-07T07:41:43;1.88;;;1.77;;
18336;SDS011;9294;51.106;7.028;2022-12-07T07:44:09;2.15;;;1.92;;
18336;SDS011;9294;51.106;7.028;2022-12-07T07:46:36;2.20;;;2.10;;
18336;SDS011;9294;51.106;7.028;2022-12-07T07:49:03;2.20;;;2.10;;
18336;SDS011;9294;51.106;7.028;2022-12-07T07:51:29;2.03;;;1.90;;
18336;SDS011;9294;51.106;7.028;2022-12-07T07:53:56;1.98;;;1.80;;
18336;SDS011;9294;51.106;7.028;2022-12-07T07:56:22;2.67;;;2.47;;
18336;SDS011;9294;51.106;7.028;2022-12-07T07:58:52;6.93;;;2.75;;
18336;SDS011;9294;51.106;7.028;2022-12-07T08:01:19;2.13;;;2.10;;
18336;SDS011;9294;51.106;7.028;2022-12-07T08:03:46;4.72;;;2.33;;
18336;SDS011;9294;51.106;7.028;2022-12-07T08:06:13;7.40;;;2.05;;
18336;SDS011;9294;51.106;7.028;2022-12-07T08:08:40;6.55;;;2.28;;
18336;SDS011;9294;51.106;7.028;2022-12-07T08:11:07;4.45;;;2.60;;
18336;SDS011;9294;51.106;7.028;2022-12-07T08:13:35;8.48;;;4.75;;
18336;SDS011;9294;51.106;7.028;2022-12-07T08:16:04;4.97;;;3.75;;
18336;SDS011;9294;51.106;7.028;2022-12-07T08:18:34;9.18;;;4.40;;
18336;SDS011;9294;51.106;7.028;2022-12-07T08:21:02;10.50;;;4.28;;
18336;SDS011;9294;51.106;7.028;2022-12-07T08:23:29;6.63;;;4.47;;
18336;SDS011;9294;51.106;7.028;2022-12-07T08:25:59;8.02;;;4.88;;
18336;SDS011;9294;51.106;7.028;2022-12-07T08:28:26;12.07;;;5.63;;
18336;SDS011;9294;51.106;7.028;2022-12-07T08:30:58;15.18;;;5.65;;
18336;SDS011;9294;51.106;7.028;2022-12-07T08:33:27;11.93;;;5.13;;
18336;SDS011;9294;51.106;7.028;2022-12-07T08:35:54;8.70;;;5.10;;
18336;SDS011;9294;51.106;7.028;2022-12-07T08:38:20;7.95;;;4.82;;
18336;SDS011;9294;51.106;7.028;2022-12-07T08:40:53;9.18;;;4.72;;
18336;SDS011;9294;51.106;7.028;2022-12-07T08:43:19;10.02;;;4.78;;
18336;SDS011;9294;51.106;7.028;2022-12-07T08:45:46;7.35;;;4.63;;
18336;SDS011;9294;51.106;7.028;2022-12-07T08:48:16;8.38;;;4.78;;
18336;SDS011;9294;51.106;7.028;2022-12-07T08:50:48;6.10;;;4.45;;
18336;SDS011;9294;51.106;7.028;2022-12-07T08:53:15;6.40;;;3.90;;
18336;SDS011;9294;51.106;7.028;2022-12-07T08:55:41;7.18;;;4.28;;
18336;SDS011;9294;51.106;7.028;2022-12-07T08:58:10;11.25;;;4.93;;
18336;SDS011;9294;51.106;7.028;2022-12-07T09:00:36;7.40;;;4.22;;
18336;SDS011;9294;51.106;7.028;2022-12-07T09:03:03;10.50;;;5.07;;
18336;SDS011;9294;51.106;7.028;2022-12-07T09:05:30;7.13;;;4.70;;
18336;SDS011;9294;51.106;7.028;2022-12-07T09:08:00;5.10;;;4.30;;
18336;SDS011;9294;51.106;7.028;2022-12-07T09:10:28;6.53;;;4.57;;
18336;SDS011;9294;51.106;7.028;2022-12-07T09:12:54;5.60;;;4.10;;
18336;SDS011;9294;51.106;7.028;2022-12-07T09:15:25;5.47;;;4.22;;
18336;SDS011;9294;51.106;7.028;2022-12-07T09:17:52;9.95;;;3.97;;
18336;SDS011;9294;51.106;7.028;2022-12-07T09:20:19;9.32;;;4.63;;
18336;SDS011;9294;51.106;7.028;2022-12-07T09:22:45;4.55;;;3.55;;
18336;SDS011;9294;51.106;7.028;2022-12-07T09:25:13;8.90;;;3.80;;
18336;SDS011;9294;51.106;7.028;2022-12-07T09:27:40;5.68;;;3.40;;
18336;SDS011;9294;51.106;7.028;2022-12-07T09:30:08;4.43;;;3.63;;
18336;SDS011;9294;51.106;7.028;2022-12-07T09:32:35;4.38;;;3.42;;
18336;SDS011;9294;51.106;7.028;2022-12-07T09:35:01;6.70;;;5.10;;
18336;SDS011;9294;51.106;7.028;2022-12-07T09:37:28;4.15;;;3.40;;
18336;SDS011;9294;51.106;7.028;2022-12-07T09:39:56;5.43;;;3.47;;
18336;SDS011;9294;51.106;7.028;2022-12-07T09:42:27;6.80;;;3.40;;
18336;SDS011;9294;51.106;7.028;2022-12-07T09:44:58;5.68;;;4.07;;
18336;SDS011;9294;51.106;7.028;2022-12-07T09:47:25;4.28;;;3.60;;
18336;SDS011;9294;51.106;7.028;2022-12-07T09:49:54;4.43;;;3.35;;
18336;SDS011;9294;51.106;7.028;2022-12-07T09:52:26;7.30;;;4.90;;
18336;SDS011;9294;51.106;7.028;2022-12-07T09:54:54;5.13;;;3.20;;
18336;SDS011;9294;51.106;7.028;2022-12-07T09:57:25;5.40;;;3.63;;
18336;SDS011;9294;51.106;7.028;2022-12-07T10:00:00;3.38;;;2.80;;
18336;SDS011;9294;51.106;7.028;2022-12-07T10:02:34;6.65;;;3.13;;
18336;SDS011;9294;51.106;7.028;2022-12-07T10:05:03;3.33;;;3.03;;
18336;SDS011;9294;51.106;7.028;2022-12-07T10:07:31;5.18;;;3.13;;
18336;SDS011;9294;51.106;7.028;2022-12-07T10:09:58;3.95;;;3.20;;
18336;SDS011;9294;51.106;7.028;2022-12-07T10:12:25;5.30;;;3.78;;
18336;SDS011;9294;51.106;7.028;2022-12-07T10:14:57;2.55;;;2.38;;
18336;SDS011;9294;51.106;7.028;2022-12-07T10:17:32;3.50;;;2.58;;
18336;SDS011;9294;51.106;7.028;2022-12-07T10:20:14;3.15;;;2.85;;
18336;SDS011;9294;51.106;7.028;2022-12-07T10:22:58;3.20;;;2.90;;
18336;SDS011;9294;51.106;7.028;2022-12-07T10:25:28;4.15;;;3.45;;
18336;SDS011;9294;51.106;7.028;2022-12-07T10:27:58;2.90;;;2.70;;
18336;SDS011;9294;51.106;7.028;2022-12-07T10:30:30;6.05;;;3.17;;
18336;SDS011;9294;51.106;7.028;2022-12-07T10:32:58;3.70;;;3.15;;
18336;SDS011;9294;51.106;7.028;2022-12-07T10:35:25;3.28;;;2.97;;
18336;SDS011;9294;51.106;7.028;2022-12-07T10:37:54;3.15;;;2.58;;
18336;SDS011;9294;51.106;7.028;2022-12-07T10:40:24;4.40;;;3.00;;
18336;SDS011;9294;51.106;7.028;2022-12-07T10:43:02;5.25;;;2.95;;
18336;SDS011;9294;51.106;7.028;2022-12-07T10:45:31;13.45;;;3.55;;
18336;SDS011;9294;51.106;7.028;2022-12-07T10:47:59;4.00;;;3.40;;
18336;SDS011;9294;51.106;7.028;2022-12-07T10:50:41;6.38;;;3.90;;
18336;SDS011;9294;51.106;7.028;2022-12-07T10:53:25;11.30;;;4.07;;
18336;SDS011;9294;51.106;7.028;2022-12-07T10:56:07;5.82;;;3.63;;
18336;SDS011;9294;51.106;7.028;2022-12-07T10:58:52;4.65;;;3.15;;
18336;SDS011;9294;51.106;7.028;2022-12-07T11:01:30;6.95;;;3.10;;
18336;SDS011;9294;51.106;7.028;2022-12-07T11:04:08;4.75;;;3.17;;
18336;SDS011;9294;51.106;7.028;2022-12-07T11:06:49;4.40;;;3.45;;
18336;SDS011;9294;51.106;7.028;2022-12-07T11:09:31;5.50;;;3.53;;
18336;SDS011;9294;51.106;7.028;2022-12-07T11:12:15;4.40;;;2.92;;
18336;SDS011;9294;51.106;7.028;2022-12-07T11:14:48;9.23;;;3.72;;
18336;SDS011;9294;51.106;7.028;2022-12-07T11:17:24;3.33;;;3.13;;
18336;SDS011;9294;51.106;7.028;2022-12-07T11:20:01;3.92;;;3.53;;
18336;SDS011;9294;51.106;7.028;2022-12-07T11:22:40;3.35;;;3.05;;
18336;SDS011;9294;51.106;7.028;2022-12-07T11:25:17;2.95;;;2.67;;
18336;SDS011;9294;51.106;7.028;2022-12-07T11:27:55;3.58;;;2.80;;
18336;SDS011;9294;51.106;7.028;2022-12-07T11:30:38;5.05;;;2.90;;
18336;SDS011;9294;51.106;7.028;2022-12-07T11:33:11;5.18;;;3.20;;
18336;SDS011;9294;51.106;7.028;2022-12-07T11:35:46;3.88;;;2.78;;
18336;SDS011;9294;51.106;7.028;2022-12-07T11:38:33;7.18;;;3.05;;
18336;SDS011;9294;51.106;7.028;2022-12-07T11:41:08;6.07;;;2.70;;
18336;SDS011;9294;51.106;7.028;2022-12-07T11:43:41;3.00;;;2.55;;
18336;SDS011;9294;51.106;7.028;2022-12-07T11:46:16;3.60;;;2.67;;
18336;SDS011;9294;51.106;7.028;2022-12-07T11:48:46;2.67;;;2.47;;
18336;SDS011;9294;51.106;7.028;2022-12-07T11:51:16;4.25;;;2.97;;
18336;SDS011;9294;51.106;7.028;2022-12-07T11:53:47;2.42;;;2.30;;
18336;SDS011;9294;51.106;7.028;2022-12-07T11:56:19;4.10;;;3.05;;
18336;SDS011;9294;51.106;7.028;2022-12-07T11:58:49;2.70;;;2.50;;
18336;SDS011;9294;51.106;7.028;2022-12-07T12:01:29;5.22;;;2.63;;
18336;SDS011;9294;51.106;7.028;2022-12-07T12:04:12;3.33;;;2.70;;
18336;SDS011;9294;51.106;7.028;2022-12-07T12:06:51;3.40;;;3.08;;
18336;SDS011;9294;51.106;7.028;2022-12-07T12:09:19;2.88;;;2.67;;
18336;SDS011;9294;51.106;7.028;2022-12-07T12:11:55;7.25;;;3.05;;
18336;SDS011;9294;51.106;7.028;2022-12-07T12:14:40;13.63;;;4.35;;
18336;SDS011;9294;51.106;7.028;2022-12-07T12:17:22;10.82;;;2.90;;
18336;SDS011;9294;51.106;7.028;2022-12-07T12:20:19;3.50;;;3.00;;
18336;SDS011;9294;51.106;7.028;2022-12-07T12:22:50;4.82;;;2.55;;
18336;SDS011;9294;51.106;7.028;2022-12-07T12:25:22;3.22;;;2.55;;
18336;SDS011;9294;51.106;7.028;2022-12-07T12:27:52;3.08;;;2.80;;
18336;SDS011;9294;51.106;7.028;2022-12-07T12:30:25;3.78;;;2.85;;
18336;SDS011;9294;51.106;7.028;2022-12-07T12:33:01;2.95;;;2.75;;
18336;SDS011;9294;51.106;7.028;2022-12-07T12:35:34;2.72;;;2.55;;
18336;SDS011;9294;51.106;7.028;2022-12-07T12:40:54;2.50;;;2.30;;
18336;SDS011;9294;51.106;7.028;2022-12-07T12:43:40;3.65;;;2.55;;
18336;SDS011;9294;51.106;7.028;2022-12-07T12:46:37;8.45;;;2.92;;
18336;SDS011;9294;51.106;7.028;2022-12-07T12:55:19;4.55;;;3.22;;
18336;SDS011;9294;51.106;7.028;2022-12-07T13:04:27;3.83;;;2.55;;
18336;SDS011;9294;51.106;7.028;2022-12-07T13:07:10;2.75;;;2.55;;
18336;SDS011;9294;51.106;7.028;2022-12-07T13:09:39;2.83;;;2.40;;
18336;SDS011;9294;51.106;7.028;2022-12-07T13:12:13;5.93;;;2.72;;
18336;SDS011;9294;51.106;7.028;2022-12-07T13:14:43;3.85;;;2.60;;
18336;SDS011;9294;51.106;7.028;2022-12-07T13:20:51;5.25;;;2.40;;
18336;SDS011;9294;51.106;7.028;2022-12-07T13:23:21;2.47;;;2.28;;
18336;SDS011;9294;51.106;7.028;2022-12-07T13:26:00;5.38;;;2.90;;
18336;SDS011;9294;51.106;7.028;2022-12-07T13:28:40;4.72;;;3.10;;
18336;SDS011;9294;51.106;7.028;2022-12-07T13:31:11;4.68;;;2.80;;
18336;SDS011;9294;51.106;7.028;2022-12-07T13:34:02;4.85;;;2.85;;
18336;SDS011;9294;51.106;7.028;2022-12-07T13:36:30;3.08;;;2.70;;
18336;SDS011;9294;51.106;7.028;2022-12-07T13:39:10;3.80;;;2.80;;
18336;SDS011;9294;51.106;7.028;2022-12-07T13:41:44;3.50;;;2.63;;
18336;SDS011;9294;51.106;7.028;2022-12-07T13:44:16;6.35;;;2.80;;
18336;SDS011;9294;51.106;7.028;2022-12-07T13:46:52;2.72;;;2.53;;
18336;SDS011;9294;51.106;7.028;2022-12-07T13:49:22;6.80;;;3.05;;
18336;SDS011;9294;51.106;7.028;2022-12-07T13:51:51;6.68;;;3.60;;
18336;SDS011;9294;51.106;7.028;2022-12-07T13:54:19;4.53;;;2.30;;
18336;SDS011;9294;51.106;7.028;2022-12-07T13:56:47;3.50;;;2.38;;
18336;SDS011;9294;51.106;7.028;2022-12-07T13:59:18;2.92;;;2.42;;
18336;SDS011;9294;51.106;7.028;2022-12-07T14:01:47;4.50;;;2.67;;
18336;SDS011;9294;51.106;7.028;2022-12-07T14:04:19;3.17;;;2.60;;
18336;SDS011;9294;51.106;7.028;2022-12-07T14:06:56;2.95;;;2.28;;
18336;SDS011;9294;51.106;7.028;2022-12-07T14:09:24;3.63;;;2.60;;
18336;SDS011;9294;51.106;7.028;2022-12-07T14:11:52;3.13;;;2.78;;
18336;SDS011;9294;51.106;7.028;2022-12-07T14:14:22;2.80;;;2.58;;
18336;SDS011;9294;51.106;7.028;2022-12-07T14:16:58;5.00;;;3.00;;
18336;SDS011;9294;51.106;7.028;2022-12-07T14:19:49;3.90;;;2.80;;
18336;SDS011;9294;51.106;7.028;2022-12-07T14:22:24;3.20;;;2.78;;
18336;SDS011;9294;51.106;7.028;2022-12-07T14:27:52;4.13;;;2.80;;
18336;SDS011;9294;51.106;7.028;2022-12-07T14:30:24;2.63;;;2.13;;
18336;SDS011;9294;51.106;7.028;2022-12-07T14:32:53;3.60;;;2.60;;
18336;SDS011;9294;51.106;7.028;2022-12-07T14:35:22;2.65;;;2.45;;
18336;SDS011;9294;51.106;7.028;2022-12-07T14:37:49;3.45;;;2.63;;
18336;SDS011;9294;51.106;7.028;2022-12-07T14:40:17;3.00;;;2.60;;
18336;SDS011;9294;51.106;7.028;2022-12-07T14:42:45;2.95;;;2.20;;
18336;SDS011;9294;51.106;7.028;2022-12-07T14:45:13;2.58;;;2.35;;
18336;SDS011;9294;51.106;7.028;2022-12-07T14:47:43;3.35;;;2.90;;
18336;SDS011;9294;51.106;7.028;2022-12-07T14:50:11;2.95;;;2.50;;
18336;SDS011;9294;51.106;7.028;2022-12-07T14:52:39;9.38;;;3.33;;
18336;SDS011;9294;51.106;7.028;2022-12-07T14:55:08;3.03;;;2.78;;
18336;SDS011;9294;51.106;7.028;2022-12-07T14:57:40;3.00;;;2.50;;
18336;SDS011;9294;51.106;7.028;2022-12-07T15:00:08;5.97;;;2.67;;
18336;SDS011;9294;51.106;7.028;2022-12-07T15:02:39;4.75;;;2.65;;
18336;SDS011;9294;51.106;7.028;2022-12-07T15:05:07;5.88;;;2.63;;
18336;SDS011;9294;51.106;7.028;2022-12-07T15:07:34;3.47;;;2.63;;
18336;SDS011;9294;51.106;7.028;2022-12-07T15:10:01;5.25;;;2.45;;
18336;SDS011;9294;51.106;7.028;2022-12-07T15:12:27;5.47;;;2.60;;
18336;SDS011;9294;51.106;7.028;2022-12-07T15:14:56;5.23;;;2.70;;
18336;SDS011;9294;51.106;7.028;2022-12-07T15:17:22;4.00;;;2.83;;
18336;SDS011;9294;51.106;7.028;2022-12-07T15:19:49;6.28;;;2.60;;
18336;SDS011;9294;51.106;7.028;2022-12-07T15:22:17;3.33;;;2.45;;
18336;SDS011;9294;51.106;7.028;2022-12-07T15:24:44;3.70;;;2.60;;
18336;SDS011;9294;51.106;7.028;2022-12-07T15:27:10;2.40;;;2.15;;
18336;SDS011;9294;51.106;7.028;2022-12-07T15:29:37;5.40;;;2.38;;
18336;SDS011;9294;51.106;7.028;2022-12-07T15:32:04;6.83;;;3.10;;
18336;SDS011;9294;51.106;7.028;2022-12-07T15:34:31;5.88;;;2.53;;
18336;SDS011;9294;51.106;7.028;2022-12-07T15:36:57;3.47;;;2.45;;
18336;SDS011;9294;51.106;7.028;2022-12-07T15:39:25;3.05;;;2.30;;
18336;SDS011;9294;51.106;7.028;2022-12-07T15:41:52;3.03;;;2.05;;
18336;SDS011;9294;51.106;7.028;2022-12-07T15:44:19;4.07;;;2.10;;
18336;SDS011;9294;51.106;7.028;2022-12-07T15:47:03;2.47;;;2.00;;